createdAt,value
2022-07-26T00:01:06.038Z,99412.00
2022-07-26T00:03:33.830Z,99407.28
2022-07-26T00:06:01.434Z,99399.13
2022-07-26T00:08:28.889Z,99396.94
2022-07-26T00:10:56.828Z,99390.13
2022-07-26T00:13:24.439Z,99389.44
2022-07-26T00:15:59.133Z,99381.38
2022-07-26T00:18:26.966Z,99385.75
2022-07-26T00:20:55.470Z,99382.16
2022-07-26T00:23:24.015Z,99377.28
2022-07-26T00:25:52.060Z,99378.84
2022-07-26T00:28:19.837Z,99375.19
2022-07-26T00:30:48.179Z,99366.16
2022-07-26T00:33:16.320Z,99370.31
2022-07-26T00:35:43.945Z,99374.63
2022-07-26T00:38:11.932Z,99370.44
2022-07-26T00:40:40.363Z,99366.47
2022-07-26T00:43:10.601Z,99362.13
2022-07-26T00:45:38.793Z,99362.22
2022-07-26T00:48:06.844Z,99370.44
2022-07-26T00:50:35.108Z,99370.59
2022-07-26T00:53:04.118Z,99370.41
2022-07-26T00:55:32.546Z,99367.75
2022-07-26T00:58:03.210Z,99357.31
2022-07-26T01:00:33.142Z,99357.41
2022-07-26T01:03:02.820Z,99357.75
2022-07-26T01:05:32.133Z,99352.59
2022-07-26T01:10:36.063Z,99338.66
2022-07-26T01:13:05.945Z,99334.53
2022-07-26T01:15:35.027Z,99336.75
2022-07-26T01:18:03.062Z,99337.47
2022-07-26T01:20:30.778Z,99335.09
2022-07-26T01:22:58.576Z,99334.72
2022-07-26T01:25:31.655Z,99334.59
2022-07-26T01:27:59.245Z,99347.13
2022-07-26T01:30:27.620Z,99338.87
2022-07-26T01:32:55.441Z,99325.84
2022-07-26T01:35:23.171Z,99327.75
2022-07-26T01:37:52.464Z,99320.00
2022-07-26T01:40:21.074Z,99313.34
2022-07-26T01:42:48.651Z,99306.28
2022-07-26T01:45:17.135Z,99301.22
2022-07-26T01:47:51.038Z,99308.59
2022-07-26T01:50:20.470Z,99305.00
2022-07-26T01:52:48.382Z,99298.84
2022-07-26T01:55:16.055Z,99314.94
2022-07-26T01:57:45.578Z,99311.09
2022-07-26T02:00:13.719Z,99298.16
2022-07-26T02:02:41.706Z,99301.09
2022-07-26T02:05:10.118Z,99299.00
2022-07-26T02:07:44.562Z,99304.78
2022-07-26T02:10:13.953Z,99298.66
2022-07-26T02:12:42.478Z,99299.50
2022-07-26T02:15:11.243Z,99306.41
2022-07-26T02:17:39.607Z,99303.50
2022-07-26T02:20:08.524Z,99306.09
2022-07-26T02:22:36.468Z,99314.25
2022-07-26T02:25:05.814Z,99308.16
2022-07-26T02:27:33.572Z,99320.19
2022-07-26T02:30:01.993Z,99315.63
2022-07-26T02:32:30.484Z,99319.31
2022-07-26T02:34:58.198Z,99315.47
2022-07-26T02:37:26.118Z,99314.34
2022-07-26T02:39:53.964Z,99312.28
2022-07-26T02:42:21.511Z,99313.78
2022-07-26T02:44:49.131Z,99317.56
2022-07-26T02:47:17.176Z,99315.81
2022-07-26T02:49:45.459Z,99317.16
2022-07-26T02:52:13.577Z,99307.03
2022-07-26T02:54:45.168Z,99311.00
2022-07-26T02:57:15.033Z,99304.41
2022-07-26T02:59:42.940Z,99308.31
2022-07-26T03:02:10.700Z,99300.41
2022-07-26T03:04:39.285Z,99311.81
2022-07-26T03:07:07.504Z,99309.88
2022-07-26T03:09:35.228Z,99309.66
2022-07-26T03:12:03.106Z,99314.59
2022-07-26T03:14:30.985Z,99313.03
2022-07-26T03:16:58.983Z,99311.19
2022-07-26T03:19:26.620Z,99311.12
2022-07-26T03:21:54.827Z,99305.44
2022-07-26T03:24:22.785Z,99316.97
2022-07-26T03:26:50.943Z,99317.59
2022-07-26T03:29:19.351Z,99325.28
2022-07-26T03:31:48.280Z,99322.78
2022-07-26T03:34:16.393Z,99317.25
2022-07-26T03:36:44.820Z,99316.28
2022-07-26T03:39:12.735Z,99313.97
2022-07-26T03:41:41.369Z,99317.97
2022-07-26T03:44:09.613Z,99309.66
2022-07-26T03:46:38.924Z,99305.63
2022-07-26T03:49:10.883Z,99300.41
2022-07-26T03:51:41.702Z,99293.44
2022-07-26T03:54:11.959Z,99298.81
2022-07-26T03:56:41.844Z,99297.94
2022-07-26T03:59:11.365Z,99298.66
2022-07-26T04:01:43.286Z,99294.97
2022-07-26T04:04:13.033Z,99285.78
2022-07-26T04:06:41.568Z,99282.94
2022-07-26T04:09:12.346Z,99284.75
2022-07-26T04:11:42.847Z,99280.59
2022-07-26T04:14:12.010Z,99270.94
2022-07-26T04:16:43.435Z,99269.16
2022-07-26T04:19:12.380Z,99274.22
2022-07-26T04:21:40.072Z,99277.22
2022-07-26T04:24:08.769Z,99280.41
2022-07-26T04:26:38.329Z,99287.91
2022-07-26T04:29:08.454Z,99278.47
2022-07-26T04:31:45.432Z,99284.13
2022-07-26T04:34:13.448Z,99292.78
2022-07-26T04:36:43.417Z,99328.88
2022-07-26T04:39:15.182Z,99396.00
2022-07-26T04:41:44.666Z,99400.69
2022-07-26T04:44:13.823Z,99354.88
2022-07-26T04:46:44.990Z,99353.34
2022-07-26T04:49:14.168Z,99376.03
2022-07-26T04:51:42.461Z,99352.84
2022-07-26T04:54:10.732Z,99365.59
2022-07-26T04:56:39.243Z,99356.88
2022-07-26T04:59:07.632Z,99350.16
2022-07-26T05:01:36.377Z,99350.09
2022-07-26T05:04:05.273Z,99350.75
2022-07-26T05:06:33.619Z,99358.88
2022-07-26T05:09:04.174Z,99353.97
2022-07-26T05:11:42.293Z,99339.97
2022-07-26T05:14:10.346Z,99330.84
2022-07-26T05:16:44.272Z,99337.78
2022-07-26T05:19:14.393Z,99336.25
2022-07-26T05:21:43.616Z,99338.09
2022-07-26T05:24:11.467Z,99341.41
2022-07-26T05:26:39.389Z,99337.00
2022-07-26T05:29:07.879Z,99336.59
2022-07-26T05:31:37.561Z,99332.50
2022-07-26T05:34:05.601Z,99336.47
2022-07-26T05:36:38.176Z,99342.12
2022-07-26T05:39:07.159Z,99332.34
2022-07-26T05:44:11.545Z,99330.28
2022-07-26T05:46:41.480Z,99330.59
2022-07-26T05:49:10.531Z,99324.03
2022-07-26T05:51:38.662Z,99324.78
2022-07-26T05:54:07.215Z,99326.19
2022-07-26T05:56:36.132Z,99325.63
2022-07-26T05:59:07.202Z,99330.94
2022-07-26T06:01:40.369Z,99324.50
2022-07-26T06:04:10.960Z,99326.81
2022-07-26T06:06:39.401Z,99330.97
2022-07-26T06:09:07.389Z,99335.88
2022-07-26T06:11:44.541Z,99328.06
2022-07-26T06:14:13.842Z,99332.75
2022-07-26T06:16:43.100Z,99330.03
2022-07-26T06:19:14.137Z,99328.88
2022-07-26T06:21:42.897Z,99342.25
2022-07-26T06:24:11.346Z,99339.00
2022-07-26T06:26:47.164Z,99339.41
2022-07-26T06:29:19.701Z,99328.44
2022-07-26T06:31:48.414Z,99320.03
2022-07-26T06:34:16.935Z,99322.13
2022-07-26T06:36:46.712Z,99327.03
2022-07-26T06:39:14.723Z,99329.31
2022-07-26T06:41:44.864Z,99325.25
2022-07-26T06:44:18.150Z,99325.69
2022-07-26T06:46:46.148Z,99317.59
2022-07-26T06:49:18.385Z,99322.22
2022-07-26T06:51:51.088Z,99307.47
2022-07-26T06:54:20.384Z,99320.81
2022-07-26T06:56:49.596Z,99313.28
2022-07-26T06:59:20.205Z,99312.72
2022-07-26T07:01:59.233Z,99304.16
2022-07-26T07:04:33.259Z,99307.50
2022-07-26T07:07:09.168Z,99308.69
2022-07-26T07:09:38.402Z,99305.13
2022-07-26T07:12:09.403Z,99304.12
2022-07-26T07:14:41.622Z,99303.41
2022-07-26T07:17:12.206Z,99295.81
2022-07-26T07:19:44.142Z,99302.31
2022-07-26T07:22:13.224Z,99305.66
2022-07-26T07:24:43.183Z,99304.16
2022-07-26T07:27:12.419Z,99302.78
2022-07-26T07:29:42.188Z,99299.91
2022-07-26T07:32:15.909Z,99303.84
2022-07-26T07:34:48.964Z,99301.13
2022-07-26T07:37:20.139Z,99292.53
2022-07-26T07:39:50.673Z,99298.16
2022-07-26T07:42:21.501Z,99302.41
2022-07-26T07:44:50.560Z,99300.69
2022-07-26T07:47:18.671Z,99317.06
2022-07-26T07:49:47.914Z,99301.56
2022-07-26T07:52:18.931Z,99304.91
2022-07-26T07:54:47.950Z,99311.22
2022-07-26T07:57:22.178Z,99326.72
2022-07-26T08:00:00.383Z,99324.44
2022-07-26T08:02:35.651Z,99330.91
2022-07-26T08:05:05.000Z,99327.16
2022-07-26T08:07:43.168Z,99334.22
2022-07-26T08:10:18.733Z,99333.09
2022-07-26T08:12:55.332Z,99322.06
2022-07-26T08:15:27.702Z,99318.47
2022-07-26T08:17:56.187Z,99314.06
2022-07-26T08:20:30.424Z,99320.53
2022-07-26T08:23:00.262Z,99315.16
2022-07-26T08:25:29.416Z,99320.22
2022-07-26T08:28:04.000Z,99329.25
2022-07-26T08:30:33.385Z,99315.41
2022-07-26T08:33:02.643Z,99309.69
2022-07-26T08:35:33.912Z,99304.81
2022-07-26T08:38:08.429Z,99301.97
2022-07-26T08:40:41.612Z,99299.47
2022-07-26T08:43:11.589Z,99300.69
2022-07-26T08:45:41.874Z,99283.94
2022-07-26T08:48:17.604Z,99295.44
2022-07-26T08:50:57.231Z,99289.34
2022-07-26T08:53:38.152Z,99291.16
2022-07-26T08:56:09.398Z,99298.63
2022-07-26T08:58:38.241Z,99310.75
2022-07-26T09:01:09.588Z,99318.84
2022-07-26T09:03:43.270Z,99315.69
2022-07-26T09:06:14.010Z,99326.97
2022-07-26T09:08:45.255Z,99325.94
2022-07-26T09:11:34.769Z,99325.59
2022-07-26T09:14:05.212Z,99330.50
2022-07-26T09:16:39.045Z,99342.44
2022-07-26T09:19:23.226Z,99344.53
2022-07-26T09:21:52.883Z,99356.06
2022-07-26T09:24:35.073Z,99369.03
2022-07-26T09:27:07.235Z,99372.22
2022-07-26T09:29:47.252Z,99394.13
2022-07-26T09:32:29.615Z,99413.34
2022-07-26T09:35:36.992Z,99432.19
2022-07-26T09:38:00.509Z,99456.19
2022-07-26T09:40:36.455Z,99487.53
2022-07-26T09:43:07.578Z,99485.66
2022-07-26T09:45:39.279Z,99484.50
2022-07-26T09:48:13.643Z,99445.63
2022-07-26T09:50:50.259Z,99424.13
2022-07-26T09:53:27.808Z,99432.06
2022-07-26T09:55:59.272Z,99451.09
2022-07-26T09:58:29.235Z,99472.88
2022-07-26T10:03:40.514Z,99437.72
2022-07-26T10:06:14.629Z,99413.97
2022-07-26T10:08:43.798Z,99409.62
2022-07-26T10:11:12.740Z,99421.84
2022-07-26T10:13:49.141Z,99416.66
2022-07-26T10:16:35.257Z,99430.00
2022-07-26T10:19:11.846Z,99457.59
2022-07-26T10:21:42.306Z,99463.31
2022-07-26T10:24:26.545Z,99462.28
2022-07-26T10:26:54.847Z,99465.94
2022-07-26T10:29:27.251Z,99477.06
2022-07-26T10:32:01.890Z,99487.81
2022-07-26T10:34:47.376Z,99491.09
2022-07-26T10:37:27.894Z,99503.41
2022-07-26T10:40:22.466Z,99506.78
2022-07-26T10:42:51.776Z,99501.53
2022-07-26T10:45:26.172Z,99502.88
2022-07-26T10:48:18.728Z,99496.81
2022-07-26T10:50:50.316Z,99501.19
2022-07-26T10:53:20.918Z,99496.81
2022-07-26T10:55:55.356Z,99497.81
2022-07-26T10:58:27.265Z,99498.84
2022-07-26T11:01:05.579Z,99515.91
2022-07-26T11:03:44.705Z,99514.03
2022-07-26T11:06:20.324Z,99517.44
2022-07-26T11:08:51.315Z,99513.00
2022-07-26T11:14:14.750Z,99500.53
2022-07-26T11:16:48.487Z,99509.34
2022-07-26T11:19:21.364Z,99505.59
2022-07-26T11:21:56.359Z,99498.50
2022-07-26T11:24:27.258Z,99491.06
2022-07-26T11:27:04.343Z,99494.75
2022-07-26T11:29:38.684Z,99499.69
2022-07-26T11:32:19.372Z,99501.53
2022-07-26T11:35:01.605Z,99504.09
2022-07-26T11:37:31.312Z,99508.13
2022-07-26T11:40:00.597Z,99506.59
2022-07-26T11:42:32.453Z,99500.16
2022-07-26T11:45:03.489Z,99505.59
2022-07-26T11:47:34.102Z,99488.84
2022-07-26T11:50:16.808Z,99479.34
2022-07-26T11:52:52.280Z,99486.59
2022-07-26T11:55:31.665Z,99478.81
2022-07-26T11:58:05.154Z,99487.88
2022-07-26T12:00:39.735Z,99492.13
2022-07-26T12:03:08.018Z,99494.53
2022-07-26T12:05:37.136Z,99489.06
2022-07-26T12:08:08.363Z,99485.09
2022-07-26T12:10:38.925Z,99483.22
2022-07-26T12:13:09.509Z,99476.53
2022-07-26T12:15:48.331Z,99475.50
2022-07-26T12:18:25.257Z,99460.81
2022-07-26T12:21:04.467Z,99466.03
2022-07-26T12:23:45.153Z,99472.97
2022-07-26T12:26:23.365Z,99471.91
2022-07-26T12:28:54.274Z,99468.37
2022-07-26T12:31:34.438Z,99467.03
2022-07-26T12:34:03.139Z,99468.59
2022-07-26T12:36:33.997Z,99468.19
2022-07-26T12:39:07.345Z,99473.59
2022-07-26T12:41:40.248Z,99473.91
2022-07-26T12:44:13.612Z,99484.13
2022-07-26T12:46:47.467Z,99486.91
2022-07-26T12:49:17.640Z,99486.53
2022-07-26T12:51:46.266Z,99475.19
2022-07-26T12:54:15.908Z,99477.75
2022-07-26T12:56:44.028Z,99466.97
2022-07-26T12:59:17.842Z,99457.84
2022-07-26T13:01:46.576Z,99460.03
2022-07-26T13:04:19.322Z,99458.91
2022-07-26T13:07:10.579Z,99449.22
2022-07-26T13:09:41.111Z,99450.25
2022-07-26T13:12:13.819Z,99455.97
2022-07-26T13:14:48.489Z,99448.41
2022-07-26T13:17:19.478Z,99452.28
2022-07-26T13:19:50.953Z,99458.97
2022-07-26T13:22:20.435Z,99447.91
2022-07-26T13:24:53.000Z,99453.81
2022-07-26T13:27:22.527Z,99469.47
2022-07-26T13:29:51.454Z,99471.22
2022-07-26T13:32:24.589Z,99465.94
2022-07-26T13:35:05.363Z,99461.66
2022-07-26T13:37:39.718Z,99454.00
2022-07-26T13:40:13.291Z,99454.56
2022-07-26T13:42:51.314Z,99451.09
2022-07-26T13:45:21.327Z,99457.63
2022-07-26T13:47:49.936Z,99457.75
2022-07-26T13:50:21.301Z,99465.78
2022-07-26T13:52:53.299Z,99471.47
2022-07-26T13:55:22.780Z,99475.03
2022-07-26T13:57:55.815Z,99473.91
2022-07-26T14:00:34.540Z,99479.47
2022-07-26T14:03:07.553Z,99491.16
2022-07-26T14:05:38.213Z,99485.16
2022-07-26T14:08:07.690Z,99484.13
2022-07-26T14:10:42.767Z,99484.38
2022-07-26T14:13:14.264Z,99487.88
2022-07-26T14:15:45.360Z,99481.88
2022-07-26T14:18:16.510Z,99475.87
2022-07-26T14:20:48.352Z,99478.69
2022-07-26T14:23:21.670Z,99471.88
2022-07-26T14:25:59.530Z,99475.13
2022-07-26T14:28:32.302Z,99472.44
2022-07-26T14:31:04.285Z,99480.47
2022-07-26T14:33:34.330Z,99485.44
2022-07-26T14:36:02.806Z,99485.59
2022-07-26T14:38:32.042Z,99487.66
2022-07-26T14:41:06.843Z,99482.63
2022-07-26T14:43:52.520Z,99473.63
2022-07-26T14:46:32.345Z,99472.44
2022-07-26T14:49:01.608Z,99472.63
2022-07-26T14:51:42.299Z,99475.31
2022-07-26T14:54:16.531Z,99478.69
2022-07-26T14:56:50.309Z,99483.47
2022-07-26T14:59:21.338Z,99468.94
2022-07-26T15:01:51.689Z,99471.84
2022-07-26T15:04:23.588Z,99468.28
2022-07-26T15:06:53.513Z,99462.19
2022-07-26T15:11:58.828Z,99455.09
2022-07-26T15:14:44.280Z,99462.41
2022-07-26T15:20:02.643Z,99458.28
2022-07-26T15:22:33.040Z,99453.34
2022-07-26T15:25:01.388Z,99450.13
2022-07-26T15:30:13.182Z,99438.44
2022-07-26T15:32:47.938Z,99440.47
2022-07-26T15:35:29.524Z,99433.16
2022-07-26T15:37:59.548Z,99431.44
2022-07-26T15:40:27.898Z,99431.88
2022-07-26T15:45:41.118Z,99434.47
2022-07-26T15:48:19.437Z,99436.63
2022-07-26T15:50:54.823Z,99435.50
2022-07-26T15:53:31.300Z,99446.56
2022-07-26T15:56:01.148Z,99441.75
2022-07-26T15:58:30.099Z,99435.94
2022-07-26T16:01:14.386Z,99431.88
2022-07-26T16:04:03.550Z,99438.56
2022-07-26T16:06:32.652Z,99430.47
2022-07-26T16:09:19.328Z,99423.28
2022-07-26T16:11:54.907Z,99421.34
2022-07-26T16:14:29.757Z,99427.88
2022-07-26T16:17:02.197Z,99429.75
2022-07-26T16:22:14.367Z,99433.19
2022-07-26T16:24:45.052Z,99432.06
2022-07-26T16:27:20.361Z,99435.75
2022-07-26T16:29:52.170Z,99433.75
2022-07-26T16:32:21.835Z,99438.91
2022-07-26T16:34:50.689Z,99449.38
2022-07-26T16:37:25.774Z,99447.22
2022-07-26T16:40:05.022Z,99444.19
2022-07-26T16:42:57.382Z,99453.78
2022-07-26T16:45:26.011Z,99439.78
2022-07-26T16:47:59.996Z,99440.69
2022-07-26T16:50:39.339Z,99442.31
2022-07-26T16:53:13.293Z,99437.50
2022-07-26T16:55:52.759Z,99437.59
2022-07-26T16:58:31.914Z,99444.59
2022-07-26T17:01:01.704Z,99438.81
2022-07-26T17:03:40.311Z,99438.03
2022-07-26T17:06:14.501Z,99443.44
2022-07-26T17:08:44.925Z,99442.34
2022-07-26T17:11:19.377Z,99442.91
2022-07-26T17:13:56.815Z,99452.84
2022-07-26T17:16:34.569Z,99445.09
2022-07-26T17:19:06.378Z,99449.66
2022-07-26T17:21:37.092Z,99452.59
2022-07-26T17:24:10.415Z,99453.16
2022-07-26T17:26:53.397Z,99450.97
2022-07-26T17:29:29.906Z,99451.22
2022-07-26T17:34:42.663Z,99452.87
2022-07-26T17:37:12.908Z,99462.69
2022-07-26T17:45:06.561Z,99462.94
2022-07-26T17:47:35.831Z,99459.91
2022-07-26T17:50:35.350Z,99461.69
2022-07-26T17:53:13.551Z,99469.25
2022-07-26T17:55:47.378Z,99466.91
2022-07-26T17:58:19.833Z,99477.75
2022-07-26T18:00:54.496Z,99469.53
2022-07-26T18:06:08.898Z,99473.66
2022-07-26T18:08:38.930Z,99467.25
2022-07-26T18:11:17.366Z,99476.81
2022-07-26T18:13:50.508Z,99475.87
2022-07-26T18:19:05.421Z,99483.72
2022-07-26T18:21:38.932Z,99474.72
2022-07-26T18:24:18.839Z,99474.19
2022-07-26T18:27:01.229Z,99466.38
2022-07-26T18:32:23.651Z,99472.03
2022-07-26T18:34:58.326Z,99483.47
2022-07-26T18:37:43.462Z,99480.44
2022-07-26T18:40:28.608Z,99483.22
2022-07-26T18:43:17.824Z,99482.44
2022-07-26T18:46:12.445Z,99488.66
2022-07-26T18:49:07.482Z,99493.47
2022-07-26T18:52:08.217Z,99499.81
2022-07-26T18:57:31.685Z,99505.66
2022-07-26T19:00:18.358Z,99512.94
2022-07-26T19:02:59.609Z,99515.91
2022-07-26T19:05:35.753Z,99514.22
2022-07-26T19:08:23.426Z,99510.03
2022-07-26T19:11:03.535Z,99510.38
2022-07-26T19:13:41.968Z,99522.72
2022-07-26T19:19:03.439Z,99521.34
2022-07-26T19:21:44.856Z,99513.41
2022-07-26T19:24:33.497Z,99517.34
2022-07-26T19:27:03.665Z,99522.97
2022-07-26T19:29:42.478Z,99517.16
2022-07-26T19:34:55.437Z,99524.41
2022-07-26T19:37:38.083Z,99520.97
2022-07-26T19:40:14.497Z,99533.38
2022-07-26T19:42:54.542Z,99527.84
2022-07-26T19:45:24.373Z,99519.34
2022-07-26T19:47:56.648Z,99533.38
2022-07-26T19:50:26.280Z,99536.28
2022-07-26T19:53:02.230Z,99535.84
2022-07-26T19:55:48.470Z,99532.97
2022-07-26T19:58:20.717Z,99543.94
2022-07-26T20:01:03.582Z,99535.84
2022-07-26T20:03:39.493Z,99542.75
2022-07-26T20:08:49.612Z,99536.34
2022-07-26T20:11:28.538Z,99538.34
2022-07-26T20:13:58.482Z,99550.06
2022-07-26T20:16:38.408Z,99543.81
2022-07-26T20:19:12.389Z,99542.94
2022-07-26T20:21:48.620Z,99547.88
2022-07-26T20:24:26.444Z,99559.50
2022-07-26T20:27:04.401Z,99558.66
2022-07-26T20:29:46.490Z,99565.41
2022-07-26T20:32:21.275Z,99571.16
2022-07-26T20:34:50.670Z,99575.50
2022-07-26T20:37:20.835Z,99578.56
2022-07-26T20:39:55.420Z,99571.66
2022-07-26T20:42:26.359Z,99577.19
2022-07-26T20:45:02.460Z,99569.94
2022-07-26T20:47:40.648Z,99571.56
2022-07-26T20:50:15.597Z,99572.28
2022-07-26T20:52:52.108Z,99579.06
2022-07-26T20:55:23.110Z,99580.09
2022-07-26T20:57:55.913Z,99577.41
2022-07-26T21:00:28.072Z,99577.53
2022-07-26T21:02:59.256Z,99579.13
2022-07-26T21:05:32.375Z,99580.03
2022-07-26T21:08:00.640Z,99573.91
2022-07-26T21:10:29.906Z,99577.69
2022-07-26T21:13:01.123Z,99576.53
2022-07-26T21:15:30.872Z,99581.00
2022-07-26T21:18:01.656Z,99574.41
2022-07-26T21:20:29.985Z,99580.78
2022-07-26T21:23:15.985Z,99580.47
2022-07-26T21:25:45.663Z,99580.72
2022-07-26T21:28:15.222Z,99578.38
2022-07-26T21:30:46.229Z,99584.38
2022-07-26T21:33:15.721Z,99594.34
2022-07-26T21:35:47.952Z,99599.59
2022-07-26T21:38:16.454Z,99590.09
2022-07-26T21:40:44.570Z,99598.81
2022-07-26T21:43:12.468Z,99588.56
2022-07-26T21:45:41.294Z,99599.81
2022-07-26T21:48:09.495Z,99597.72
2022-07-26T21:50:37.879Z,99595.97
2022-07-26T21:53:06.540Z,99598.28
2022-07-26T21:55:35.915Z,99602.16
2022-07-26T21:58:04.923Z,99612.09
2022-07-26T22:00:32.918Z,99612.94
2022-07-26T22:03:01.086Z,99615.19
2022-07-26T22:05:35.114Z,99607.44
2022-07-26T22:08:03.319Z,99607.34
2022-07-26T22:10:34.476Z,99605.13
2022-07-26T22:13:05.584Z,99601.84
2022-07-26T22:15:34.583Z,99603.53
2022-07-26T22:18:02.790Z,99615.59
2022-07-26T22:20:35.437Z,99607.63
2022-07-26T22:23:09.520Z,99609.00
2022-07-26T22:25:39.076Z,99607.88
2022-07-26T22:28:09.810Z,99606.41
2022-07-26T22:30:39.442Z,99603.84
2022-07-26T22:33:08.243Z,99619.28
2022-07-26T22:35:36.525Z,99609.97
2022-07-26T22:38:07.402Z,99609.03
2022-07-26T22:40:36.452Z,99615.97
2022-07-26T22:43:04.351Z,99628.06
2022-07-26T22:45:33.830Z,99627.31
2022-07-26T22:48:03.154Z,99629.75
2022-07-26T22:50:31.554Z,99637.13
2022-07-26T22:53:01.439Z,99629.22
2022-07-26T22:55:29.584Z,99627.66
2022-07-26T22:57:57.419Z,99631.88
2022-07-26T23:00:25.720Z,99620.56
2022-07-26T23:02:53.731Z,99626.87
2022-07-26T23:05:21.717Z,99626.87
2022-07-26T23:07:59.179Z,99629.66
2022-07-26T23:10:31.211Z,99635.81
2022-07-26T23:13:00.796Z,99630.50
2022-07-26T23:15:28.751Z,99636.34
2022-07-26T23:17:57.706Z,99632.00
2022-07-26T23:20:26.834Z,99624.28
2022-07-26T23:22:54.686Z,99619.50
2022-07-26T23:25:23.707Z,99615.88
2022-07-26T23:27:52.983Z,99611.59
2022-07-26T23:30:20.891Z,99616.84
2022-07-26T23:32:48.578Z,99614.06
2022-07-26T23:35:16.578Z,99617.31
2022-07-26T23:37:44.159Z,99618.81
2022-07-26T23:40:11.934Z,99621.59
2022-07-26T23:42:40.083Z,99634.38
2022-07-26T23:45:08.415Z,99634.31
2022-07-26T23:47:35.950Z,99645.50
2022-07-26T23:50:04.132Z,99638.44
2022-07-26T23:52:42.409Z,99640.00
2022-07-26T23:55:11.184Z,99641.31
2022-07-26T23:57:39.240Z,99640.25
